createdAt,value
2022-09-06T00:00:40.640Z,23.50
2022-09-06T00:05:41.179Z,23.50
2022-09-06T00:10:41.762Z,23.50
2022-09-06T00:15:40.620Z,23.50
2022-09-06T00:20:41.004Z,23.60
2022-09-06T00:25:41.085Z,23.60
2022-09-06T00:30:41.016Z,23.60
2022-09-06T00:35:40.739Z,23.70
2022-09-06T00:40:39.492Z,23.60
2022-09-06T00:45:39.120Z,23.40
2022-09-06T00:50:38.424Z,23.20
2022-09-06T00:55:37.484Z,23.00
2022-09-06T01:00:36.580Z,22.90
2022-09-06T01:05:35.720Z,22.80
2022-09-06T01:10:35.476Z,22.70
2022-09-06T01:15:34.417Z,22.70
2022-09-06T01:20:36.687Z,22.70
2022-09-06T01:25:35.608Z,22.70
2022-09-06T01:30:34.784Z,22.60
2022-09-06T01:35:33.491Z,22.60
2022-09-06T01:40:35.272Z,22.50
2022-09-06T01:45:34.592Z,22.50
2022-09-06T01:50:33.800Z,22.50
2022-09-06T01:55:32.510Z,22.50
2022-09-06T02:00:31.434Z,22.40
2022-09-06T02:05:30.736Z,22.30
2022-09-06T02:10:29.669Z,22.10
2022-09-06T02:15:30.854Z,22.10
2022-09-06T02:20:29.710Z,21.80
2022-09-06T02:25:28.545Z,21.60
2022-09-06T02:30:27.630Z,21.50
2022-09-06T02:35:26.557Z,21.40
2022-09-06T02:40:25.743Z,21.40
2022-09-06T02:45:24.565Z,21.30
2022-09-06T02:50:23.508Z,21.30
2022-09-06T02:55:22.568Z,21.30
2022-09-06T03:00:21.924Z,21.10
2022-09-06T03:05:20.541Z,20.90
2022-09-06T03:10:19.452Z,20.80
2022-09-06T03:15:18.583Z,20.80
2022-09-06T03:20:17.685Z,20.70
2022-09-06T03:25:16.942Z,20.70
2022-09-06T03:30:15.705Z,20.80
2022-09-06T03:35:15.173Z,20.90
2022-09-06T03:40:14.745Z,21.00
2022-09-06T03:45:13.737Z,21.00
2022-09-06T03:50:12.761Z,21.00
2022-09-06T03:55:11.929Z,21.00
2022-09-06T04:00:12.658Z,20.90
2022-09-06T04:05:12.952Z,20.90
2022-09-06T04:10:11.941Z,21.00
2022-09-06T04:15:10.690Z,21.00
2022-09-06T04:20:09.797Z,20.90
2022-09-06T04:25:08.709Z,20.70
2022-09-06T04:30:07.777Z,20.60
2022-09-06T04:35:06.634Z,20.50
2022-09-06T04:40:05.933Z,20.40
2022-09-06T04:45:05.277Z,20.30
2022-09-06T04:50:04.805Z,20.20
2022-09-06T04:55:04.309Z,20.10
2022-09-06T05:00:03.941Z,20.10
2022-09-06T05:05:04.747Z,20.00
2022-09-06T05:10:03.621Z,19.90
2022-09-06T05:15:02.736Z,19.90
2022-09-06T05:20:01.733Z,19.90
2022-09-06T05:25:00.735Z,19.80
2022-09-06T05:29:59.763Z,19.80
2022-09-06T05:34:58.770Z,19.70
2022-09-06T05:39:59.702Z,19.70
2022-09-06T05:44:58.824Z,19.80
2022-09-06T05:49:57.894Z,19.80
2022-09-06T05:54:56.848Z,19.80
2022-09-06T05:59:55.656Z,19.90
2022-09-06T06:04:54.905Z,19.90
2022-09-06T06:09:53.873Z,20.00
2022-09-06T06:14:52.675Z,20.10
2022-09-06T06:19:51.691Z,20.20
2022-09-06T06:24:50.739Z,20.40
2022-09-06T06:29:50.229Z,20.40
2022-09-06T06:34:49.777Z,20.60
2022-09-06T06:39:48.893Z,20.70
2022-09-06T06:44:47.782Z,20.80
2022-09-06T06:49:48.094Z,21.00
2022-09-06T06:54:48.332Z,21.10
2022-09-06T06:59:47.933Z,21.30
2022-09-06T07:04:46.698Z,21.50
2022-09-06T07:14:46.741Z,21.90
2022-09-06T07:24:46.812Z,22.30
2022-09-06T07:29:45.655Z,22.60
2022-09-06T07:34:44.855Z,22.80
2022-09-06T07:39:43.979Z,23.10
2022-09-06T07:44:42.782Z,23.30
2022-09-06T07:54:42.672Z,23.60
2022-09-06T07:59:43.049Z,23.90
2022-09-06T08:04:42.157Z,24.10
2022-09-06T08:09:40.685Z,24.30
2022-09-06T08:14:39.806Z,24.40
2022-09-06T08:19:38.912Z,24.60
2022-09-06T08:24:38.273Z,24.80
2022-09-06T08:29:37.041Z,25.00
2022-09-06T08:34:35.857Z,25.20
2022-09-06T08:39:34.898Z,25.40
2022-09-06T08:49:34.940Z,25.70
2022-09-06T08:54:34.148Z,26.00
2022-09-06T08:59:32.800Z,26.20
2022-09-06T09:04:31.967Z,26.20
2022-09-06T09:09:30.764Z,26.40
2022-09-06T09:14:29.802Z,26.50
2022-09-06T09:19:31.371Z,26.70
2022-09-06T09:24:30.955Z,27.00
2022-09-06T09:29:34.395Z,27.20
2022-09-06T09:34:32.908Z,27.30
2022-09-06T09:39:32.033Z,27.40
2022-09-06T09:44:30.837Z,27.60
2022-09-06T09:49:29.887Z,27.70
2022-09-06T09:54:28.842Z,27.80
2022-09-06T09:59:27.944Z,28.00
2022-09-06T10:09:27.975Z,28.20
2022-09-06T10:14:27.053Z,28.20
2022-09-06T10:19:25.940Z,28.30
2022-09-06T10:29:24.012Z,28.70
2022-09-06T10:34:22.964Z,28.80
2022-09-06T10:39:21.968Z,28.90
2022-09-06T10:44:21.018Z,29.10
2022-09-06T10:49:19.896Z,29.20
2022-09-06T10:54:19.012Z,29.20
2022-09-06T11:04:19.769Z,29.50
2022-09-06T11:09:18.786Z,29.60
2022-09-06T11:14:18.017Z,29.70
2022-09-06T11:19:17.439Z,29.90
2022-09-06T11:24:15.843Z,30.00
2022-09-06T11:29:14.793Z,30.00
2022-09-06T11:34:13.884Z,30.20
2022-09-06T11:39:12.799Z,30.40
2022-09-06T11:44:11.897Z,30.70
2022-09-06T11:49:11.117Z,30.80
2022-09-06T11:54:09.931Z,31.00
2022-09-06T11:59:08.812Z,31.10
2022-09-06T12:04:08.679Z,31.20
2022-09-06T12:09:08.885Z,31.30
2022-09-06T12:14:09.199Z,31.40
2022-09-06T12:19:07.931Z,31.50
2022-09-06T12:24:06.843Z,31.70
2022-09-06T12:29:05.863Z,31.80
2022-09-06T12:34:04.868Z,31.90
2022-09-06T12:39:03.889Z,31.90
2022-09-06T12:44:02.859Z,32.00
2022-09-06T12:49:01.906Z,32.10
2022-09-06T12:54:00.913Z,32.20
2022-09-06T12:58:59.849Z,32.30
2022-09-06T13:03:59.971Z,32.30
2022-09-06T13:08:59.169Z,32.30
2022-09-06T13:13:57.876Z,32.40
2022-09-06T13:18:56.905Z,32.10
2022-09-06T13:23:57.961Z,32.00
2022-09-06T13:28:57.038Z,32.00
2022-09-06T13:33:56.658Z,32.00
2022-09-06T13:38:55.904Z,32.00
2022-09-06T13:43:55.094Z,31.90
2022-09-06T13:48:53.940Z,31.80
2022-09-06T13:53:52.963Z,31.80
2022-09-06T13:58:51.961Z,32.00
2022-09-06T14:03:51.089Z,32.10
2022-09-06T14:09:06.317Z,32.30
2022-09-06T14:13:50.969Z,32.30
2022-09-06T14:18:49.957Z,32.30
2022-09-06T14:23:50.460Z,32.20
2022-09-06T14:28:49.006Z,32.20
2022-09-06T14:33:48.034Z,32.00
2022-09-06T14:38:47.014Z,32.00
2022-09-06T14:43:46.240Z,32.10
2022-09-06T14:48:45.260Z,32.00
2022-09-06T14:53:44.456Z,32.00
2022-09-06T14:58:43.996Z,32.00
2022-09-06T15:03:43.014Z,31.90
2022-09-06T15:08:41.952Z,31.90
2022-09-06T15:13:41.037Z,32.00
2022-09-06T15:18:40.184Z,31.90
2022-09-06T15:23:39.302Z,31.90
2022-09-06T15:28:38.477Z,31.90
2022-09-06T15:33:37.169Z,31.80
2022-09-06T15:38:35.985Z,31.60
2022-09-06T15:43:35.483Z,31.50
2022-09-06T15:48:34.177Z,31.30
2022-09-06T15:53:33.547Z,31.20
2022-09-06T15:58:32.031Z,31.10
2022-09-06T16:03:31.409Z,30.90
2022-09-06T16:08:30.633Z,30.70
2022-09-06T16:13:29.066Z,30.70
2022-09-06T16:18:28.393Z,30.50
2022-09-06T16:23:27.275Z,30.40
2022-09-06T16:28:26.108Z,30.30
2022-09-06T16:33:25.365Z,30.20
2022-09-06T16:38:24.496Z,30.10
2022-09-06T16:43:23.145Z,30.00
2022-09-06T16:48:22.341Z,29.90
2022-09-06T16:53:22.196Z,29.80
2022-09-06T16:58:21.500Z,29.70
2022-09-06T17:03:20.186Z,29.60
2022-09-06T17:08:19.198Z,29.50
2022-09-06T17:13:18.213Z,29.50
2022-09-06T17:18:17.232Z,29.30
2022-09-06T17:23:19.653Z,29.10
2022-09-06T17:28:17.382Z,29.00
2022-09-06T17:33:17.277Z,28.80
2022-09-06T17:38:16.306Z,28.70
2022-09-06T17:43:15.097Z,28.50
2022-09-06T17:48:17.521Z,28.40
2022-09-06T17:53:16.107Z,28.20
2022-09-06T17:58:15.100Z,28.10
2022-09-06T18:03:14.118Z,27.90
2022-09-06T18:08:13.182Z,27.70
2022-09-06T18:13:12.280Z,27.50
2022-09-06T18:18:11.191Z,27.40
2022-09-06T18:23:13.381Z,27.30
2022-09-06T18:28:12.277Z,27.10
2022-09-06T18:33:13.092Z,26.90
2022-09-06T18:38:12.316Z,26.70
2022-09-06T18:43:11.272Z,26.60
2022-09-06T18:48:10.723Z,26.50
2022-09-06T18:53:09.272Z,26.50
2022-09-06T18:58:12.474Z,26.40
2022-09-06T19:03:11.216Z,26.40
2022-09-06T19:08:10.504Z,26.30
2022-09-06T19:13:09.491Z,26.20
2022-09-06T19:18:08.232Z,26.20
2022-09-06T19:23:07.484Z,26.10
2022-09-06T19:28:06.251Z,26.10
2022-09-06T19:33:05.359Z,26.00
2022-09-06T19:38:04.789Z,26.10
2022-09-06T19:43:03.280Z,26.10
2022-09-06T19:48:02.183Z,26.20
2022-09-06T19:53:05.315Z,26.20
2022-09-06T19:58:03.067Z,26.30
2022-09-06T20:03:02.199Z,26.30
2022-09-06T20:08:01.219Z,26.30
2022-09-06T20:13:00.178Z,26.30
2022-09-06T20:17:59.235Z,26.20
2022-09-06T20:22:58.204Z,26.20
2022-09-06T20:27:58.163Z,26.20
2022-09-06T20:32:57.310Z,26.20
2022-09-06T20:37:56.386Z,26.20
2022-09-06T20:42:55.519Z,26.20
2022-09-06T20:47:56.360Z,26.10
2022-09-06T20:52:55.403Z,26.00
2022-09-06T20:57:54.903Z,25.90
2022-09-06T21:02:54.245Z,25.80
2022-09-06T21:07:53.445Z,25.70
2022-09-06T21:12:52.552Z,25.50
2022-09-06T21:17:51.473Z,25.40
2022-09-06T21:22:50.415Z,25.30
2022-09-06T21:27:52.701Z,25.30
2022-09-06T21:32:50.600Z,25.30
2022-09-06T21:37:49.363Z,25.20
2022-09-06T21:42:48.383Z,25.10
2022-09-06T21:47:47.380Z,25.00
2022-09-06T21:52:46.371Z,24.90
2022-09-06T21:57:45.398Z,24.80
2022-09-06T22:02:44.404Z,24.80
2022-09-06T22:07:43.423Z,24.70
2022-09-06T22:12:42.936Z,24.60
2022-09-06T22:17:41.448Z,24.60
2022-09-06T22:22:40.551Z,24.50
2022-09-06T22:27:39.463Z,24.50
2022-09-06T22:32:38.575Z,24.50
2022-09-06T22:37:37.500Z,24.60
2022-09-06T22:42:36.492Z,24.60
2022-09-06T22:47:35.404Z,24.60
2022-09-06T22:52:34.529Z,24.60
2022-09-06T22:57:33.547Z,24.70
2022-09-06T23:02:32.552Z,24.70
2022-09-06T23:07:31.852Z,24.60
2022-09-06T23:12:30.559Z,24.60
2022-09-06T23:17:29.579Z,24.60
2022-09-06T23:22:28.410Z,24.60
2022-09-06T23:27:27.419Z,24.40
2022-09-06T23:32:26.413Z,24.20
2022-09-06T23:37:25.423Z,23.40
2022-09-06T23:42:24.406Z,22.60
2022-09-06T23:47:23.371Z,21.70
2022-09-06T23:52:22.317Z,20.80
2022-09-06T23:57:21.344Z,20.20
